sensor_id;sensor_type;location;lat;lon;timestamp;P1;durP1;ratioP1;P2;durP2;ratioP2
20415;SDS011;10367;52.202;5.996;2023-07-30T00:01:14;22.93;;;20.10;;
20415;SDS011;10367;52.202;5.996;2023-07-30T00:03:46;18.90;;;17.27;;
20415;SDS011;10367;52.202;5.996;2023-07-30T00:06:15;22.00;;;19.93;;
20415;SDS011;10367;52.202;5.996;2023-07-30T00:08:45;20.23;;;18.27;;
20415;SDS011;10367;52.202;5.996;2023-07-30T00:11:14;21.87;;;19.70;;
20415;SDS011;10367;52.202;5.996;2023-07-30T00:13:45;19.37;;;18.10;;
20415;SDS011;10367;52.202;5.996;2023-07-30T00:16:14;23.20;;;20.43;;
20415;SDS011;10367;52.202;5.996;2023-07-30T00:18:43;23.77;;;19.70;;
20415;SDS011;10367;52.202;5.996;2023-07-30T00:21:12;22.00;;;20.00;;
20415;SDS011;10367;52.202;5.996;2023-07-30T00:23:40;21.43;;;19.27;;
20415;SDS011;10367;52.202;5.996;2023-07-30T00:26:11;22.37;;;20.27;;
20415;SDS011;10367;52.202;5.996;2023-07-30T00:28:41;19.50;;;17.93;;
20415;SDS011;10367;52.202;5.996;2023-07-30T00:31:10;20.27;;;18.37;;
20415;SDS011;10367;52.202;5.996;2023-07-30T00:33:39;20.40;;;18.57;;
20415;SDS011;10367;52.202;5.996;2023-07-30T00:36:10;21.77;;;19.87;;
20415;SDS011;10367;52.202;5.996;2023-07-30T00:38:39;21.03;;;18.63;;
20415;SDS011;10367;52.202;5.996;2023-07-30T00:41:08;22.97;;;20.70;;
20415;SDS011;10367;52.202;5.996;2023-07-30T00:43:40;19.53;;;18.00;;
20415;SDS011;10367;52.202;5.996;2023-07-30T00:46:09;22.47;;;20.17;;
20415;SDS011;10367;52.202;5.996;2023-07-30T00:48:38;20.83;;;18.83;;
20415;SDS011;10367;52.202;5.996;2023-07-30T00:51:07;22.17;;;20.10;;
20415;SDS011;10367;52.202;5.996;2023-07-30T00:53:37;20.53;;;18.73;;
20415;SDS011;10367;52.202;5.996;2023-07-30T00:56:05;23.13;;;19.80;;
20415;SDS011;10367;52.202;5.996;2023-07-30T00:58:34;21.13;;;19.33;;
20415;SDS011;10367;52.202;5.996;2023-07-30T01:01:05;25.00;;;21.50;;
20415;SDS011;10367;52.202;5.996;2023-07-30T01:03:34;20.63;;;18.73;;
20415;SDS011;10367;52.202;5.996;2023-07-30T01:06:03;20.47;;;18.50;;
20415;SDS011;10367;52.202;5.996;2023-07-30T01:08:33;21.47;;;19.50;;
20415;SDS011;10367;52.202;5.996;2023-07-30T01:11:02;22.70;;;20.50;;
20415;SDS011;10367;52.202;5.996;2023-07-30T01:13:33;22.33;;;19.90;;
20415;SDS011;10367;52.202;5.996;2023-07-30T01:16:03;23.43;;;21.17;;
20415;SDS011;10367;52.202;5.996;2023-07-30T01:18:36;19.53;;;17.93;;
20415;SDS011;10367;52.202;5.996;2023-07-30T01:21:06;21.70;;;19.70;;
20415;SDS011;10367;52.202;5.996;2023-07-30T01:23:35;19.57;;;17.80;;
20415;SDS011;10367;52.202;5.996;2023-07-30T01:26:05;21.40;;;19.17;;
20415;SDS011;10367;52.202;5.996;2023-07-30T01:28:51;26.60;;;19.10;;
20415;SDS011;10367;52.202;5.996;2023-07-30T01:31:32;20.47;;;18.57;;
20415;SDS011;10367;52.202;5.996;2023-07-30T01:34:03;19.70;;;17.83;;
20415;SDS011;10367;52.202;5.996;2023-07-30T01:36:35;20.33;;;18.63;;
20415;SDS011;10367;52.202;5.996;2023-07-30T01:39:05;22.53;;;19.57;;
20415;SDS011;10367;52.202;5.996;2023-07-30T01:41:34;20.77;;;19.03;;
20415;SDS011;10367;52.202;5.996;2023-07-30T01:44:03;22.27;;;19.20;;
20415;SDS011;10367;52.202;5.996;2023-07-30T01:46:32;20.60;;;18.80;;
20415;SDS011;10367;52.202;5.996;2023-07-30T01:49:04;22.77;;;19.40;;
20415;SDS011;10367;52.202;5.996;2023-07-30T01:51:34;21.30;;;19.27;;
20415;SDS011;10367;52.202;5.996;2023-07-30T01:54:03;21.17;;;19.13;;
20415;SDS011;10367;52.202;5.996;2023-07-30T01:56:32;20.53;;;18.53;;
20415;SDS011;10367;52.202;5.996;2023-07-30T01:59:01;22.37;;;19.37;;
20415;SDS011;10367;52.202;5.996;2023-07-30T02:01:29;20.33;;;18.30;;
20415;SDS011;10367;52.202;5.996;2023-07-30T02:03:58;22.17;;;18.23;;
20415;SDS011;10367;52.202;5.996;2023-07-30T02:06:29;20.50;;;18.70;;
20415;SDS011;10367;52.202;5.996;2023-07-30T02:08:59;22.17;;;19.93;;
20415;SDS011;10367;52.202;5.996;2023-07-30T02:11:29;21.00;;;19.13;;
20415;SDS011;10367;52.202;5.996;2023-07-30T02:13:57;19.90;;;17.87;;
20415;SDS011;10367;52.202;5.996;2023-07-30T02:16:26;21.67;;;19.70;;
20415;SDS011;10367;52.202;5.996;2023-07-30T02:18:55;20.10;;;18.03;;
20415;SDS011;10367;52.202;5.996;2023-07-30T02:21:23;17.73;;;16.43;;
20415;SDS011;10367;52.202;5.996;2023-07-30T02:23:52;19.77;;;17.67;;
20415;SDS011;10367;52.202;5.996;2023-07-30T02:26:22;22.80;;;19.60;;
20415;SDS011;10367;52.202;5.996;2023-07-30T02:28:51;18.97;;;17.00;;
20415;SDS011;10367;52.202;5.996;2023-07-30T02:31:20;22.97;;;20.53;;
20415;SDS011;10367;52.202;5.996;2023-07-30T02:33:49;21.63;;;18.20;;
20415;SDS011;10367;52.202;5.996;2023-07-30T02:36:18;22.00;;;19.27;;
20415;SDS011;10367;52.202;5.996;2023-07-30T02:38:46;19.23;;;17.50;;
20415;SDS011;10367;52.202;5.996;2023-07-30T02:41:15;19.50;;;17.77;;
20415;SDS011;10367;52.202;5.996;2023-07-30T02:43:46;20.03;;;18.20;;
20415;SDS011;10367;52.202;5.996;2023-07-30T02:46:15;21.73;;;19.83;;
20415;SDS011;10367;52.202;5.996;2023-07-30T02:48:44;19.80;;;17.87;;
20415;SDS011;10367;52.202;5.996;2023-07-30T02:51:12;25.40;;;20.10;;
20415;SDS011;10367;52.202;5.996;2023-07-30T02:53:42;22.60;;;17.97;;
20415;SDS011;10367;52.202;5.996;2023-07-30T02:56:11;22.47;;;20.37;;
20415;SDS011;10367;52.202;5.996;2023-07-30T02:58:40;19.03;;;17.43;;
20415;SDS011;10367;52.202;5.996;2023-07-30T03:01:10;19.30;;;17.70;;
20415;SDS011;10367;52.202;5.996;2023-07-30T03:03:39;20.63;;;18.23;;
20415;SDS011;10367;52.202;5.996;2023-07-30T03:06:07;21.10;;;18.87;;
20415;SDS011;10367;52.202;5.996;2023-07-30T03:08:36;21.07;;;18.87;;
20415;SDS011;10367;52.202;5.996;2023-07-30T03:11:05;27.60;;;20.43;;
20415;SDS011;10367;52.202;5.996;2023-07-30T03:13:36;18.80;;;16.83;;
20415;SDS011;10367;52.202;5.996;2023-07-30T03:16:05;20.83;;;18.67;;
20415;SDS011;10367;52.202;5.996;2023-07-30T03:18:35;19.33;;;17.40;;
20415;SDS011;10367;52.202;5.996;2023-07-30T03:21:04;20.47;;;18.27;;
20415;SDS011;10367;52.202;5.996;2023-07-30T03:23:34;20.80;;;18.63;;
20415;SDS011;10367;52.202;5.996;2023-07-30T03:26:03;21.27;;;19.10;;
20415;SDS011;10367;52.202;5.996;2023-07-30T03:28:32;20.50;;;18.40;;
20415;SDS011;10367;52.202;5.996;2023-07-30T03:31:06;21.87;;;19.37;;
20415;SDS011;10367;52.202;5.996;2023-07-30T03:33:40;19.20;;;17.53;;
20415;SDS011;10367;52.202;5.996;2023-07-30T03:36:11;23.83;;;19.20;;
20415;SDS011;10367;52.202;5.996;2023-07-30T03:38:41;19.70;;;17.83;;
20415;SDS011;10367;52.202;5.996;2023-07-30T03:41:10;24.73;;;19.77;;
20415;SDS011;10367;52.202;5.996;2023-07-30T03:43:39;19.97;;;18.07;;
20415;SDS011;10367;52.202;5.996;2023-07-30T03:46:08;21.77;;;19.63;;
20415;SDS011;10367;52.202;5.996;2023-07-30T03:48:39;20.20;;;18.37;;
20415;SDS011;10367;52.202;5.996;2023-07-30T03:51:08;22.40;;;18.43;;
20415;SDS011;10367;52.202;5.996;2023-07-30T03:53:40;25.60;;;20.53;;
20415;SDS011;10367;52.202;5.996;2023-07-30T03:56:09;25.83;;;19.73;;
20415;SDS011;10367;52.202;5.996;2023-07-30T03:58:38;21.40;;;18.73;;
20415;SDS011;10367;52.202;5.996;2023-07-30T04:01:07;26.03;;;21.00;;
20415;SDS011;10367;52.202;5.996;2023-07-30T04:03:36;25.87;;;17.27;;
20415;SDS011;10367;52.202;5.996;2023-07-30T04:06:06;25.83;;;19.47;;
20415;SDS011;10367;52.202;5.996;2023-07-30T04:08:35;21.80;;;18.40;;
20415;SDS011;10367;52.202;5.996;2023-07-30T04:11:04;25.63;;;20.23;;
20415;SDS011;10367;52.202;5.996;2023-07-30T04:13:33;20.47;;;18.57;;
20415;SDS011;10367;52.202;5.996;2023-07-30T04:16:02;23.27;;;19.43;;
20415;SDS011;10367;52.202;5.996;2023-07-30T04:18:31;25.10;;;19.93;;
20415;SDS011;10367;52.202;5.996;2023-07-30T04:21:00;20.03;;;18.27;;
20415;SDS011;10367;52.202;5.996;2023-07-30T04:23:30;21.20;;;19.17;;
20415;SDS011;10367;52.202;5.996;2023-07-30T04:25:59;26.73;;;18.80;;
20415;SDS011;10367;52.202;5.996;2023-07-30T04:28:31;20.77;;;18.57;;
20415;SDS011;10367;52.202;5.996;2023-07-30T04:31:03;25.53;;;18.10;;
20415;SDS011;10367;52.202;5.996;2023-07-30T04:33:32;24.80;;;19.30;;
20415;SDS011;10367;52.202;5.996;2023-07-30T04:36:03;21.17;;;19.07;;
20415;SDS011;10367;52.202;5.996;2023-07-30T04:38:35;26.40;;;18.73;;
20415;SDS011;10367;52.202;5.996;2023-07-30T04:41:06;29.90;;;21.40;;
20415;SDS011;10367;52.202;5.996;2023-07-30T04:43:35;25.30;;;20.30;;
20415;SDS011;10367;52.202;5.996;2023-07-30T04:46:03;26.60;;;21.17;;
20415;SDS011;10367;52.202;5.996;2023-07-30T04:48:32;34.30;;;21.57;;
20415;SDS011;10367;52.202;5.996;2023-07-30T04:51:01;29.40;;;20.73;;
20415;SDS011;10367;52.202;5.996;2023-07-30T04:53:30;33.70;;;21.27;;
20415;SDS011;10367;52.202;5.996;2023-07-30T04:56:01;23.70;;;21.20;;
20415;SDS011;10367;52.202;5.996;2023-07-30T04:58:30;35.63;;;20.40;;
20415;SDS011;10367;52.202;5.996;2023-07-30T05:00:59;39.87;;;21.80;;
20415;SDS011;10367;52.202;5.996;2023-07-30T05:03:27;27.33;;;21.87;;
20415;SDS011;10367;52.202;5.996;2023-07-30T05:05:56;26.30;;;21.13;;
20415;SDS011;10367;52.202;5.996;2023-07-30T05:08:25;33.87;;;21.87;;
20415;SDS011;10367;52.202;5.996;2023-07-30T05:10:54;29.73;;;21.87;;
20415;SDS011;10367;52.202;5.996;2023-07-30T05:13:24;33.97;;;21.50;;
20415;SDS011;10367;52.202;5.996;2023-07-30T05:15:53;23.90;;;20.60;;
20415;SDS011;10367;52.202;5.996;2023-07-30T05:18:21;32.43;;;23.40;;
20415;SDS011;10367;52.202;5.996;2023-07-30T05:20:50;24.50;;;20.80;;
20415;SDS011;10367;52.202;5.996;2023-07-30T05:23:19;26.30;;;22.03;;
20415;SDS011;10367;52.202;5.996;2023-07-30T05:25:50;25.43;;;21.47;;
20415;SDS011;10367;52.202;5.996;2023-07-30T05:28:19;30.57;;;21.77;;
20415;SDS011;10367;52.202;5.996;2023-07-30T05:30:49;29.67;;;22.00;;
20415;SDS011;10367;52.202;5.996;2023-07-30T05:33:18;34.60;;;24.30;;
20415;SDS011;10367;52.202;5.996;2023-07-30T05:35:47;32.83;;;23.00;;
20415;SDS011;10367;52.202;5.996;2023-07-30T05:38:15;35.47;;;23.43;;
20415;SDS011;10367;52.202;5.996;2023-07-30T05:40:44;27.07;;;21.80;;
20415;SDS011;10367;52.202;5.996;2023-07-30T05:43:13;26.50;;;22.10;;
20415;SDS011;10367;52.202;5.996;2023-07-30T05:45:42;27.47;;;24.60;;
20415;SDS011;10367;52.202;5.996;2023-07-30T05:48:12;37.27;;;23.40;;
20415;SDS011;10367;52.202;5.996;2023-07-30T05:50:41;27.27;;;22.43;;
20415;SDS011;10367;52.202;5.996;2023-07-30T05:53:10;28.60;;;23.20;;
20415;SDS011;10367;52.202;5.996;2023-07-30T05:55:39;32.77;;;23.47;;
20415;SDS011;10367;52.202;5.996;2023-07-30T05:58:07;30.83;;;23.17;;
20415;SDS011;10367;52.202;5.996;2023-07-30T06:00:36;38.73;;;23.67;;
20415;SDS011;10367;52.202;5.996;2023-07-30T06:03:05;29.73;;;22.30;;
20415;SDS011;10367;52.202;5.996;2023-07-30T06:05:39;34.17;;;23.27;;
20415;SDS011;10367;52.202;5.996;2023-07-30T06:08:08;29.40;;;22.83;;
20415;SDS011;10367;52.202;5.996;2023-07-30T06:10:38;28.30;;;22.03;;
20415;SDS011;10367;52.202;5.996;2023-07-30T06:13:07;30.33;;;22.77;;
20415;SDS011;10367;52.202;5.996;2023-07-30T06:15:36;25.70;;;22.00;;
20415;SDS011;10367;52.202;5.996;2023-07-30T06:18:05;31.03;;;23.10;;
20415;SDS011;10367;52.202;5.996;2023-07-30T06:20:34;28.70;;;21.83;;
20415;SDS011;10367;52.202;5.996;2023-07-30T06:23:04;28.57;;;23.00;;
20415;SDS011;10367;52.202;5.996;2023-07-30T06:25:33;25.30;;;22.03;;
20415;SDS011;10367;52.202;5.996;2023-07-30T06:28:01;27.60;;;23.00;;
20415;SDS011;10367;52.202;5.996;2023-07-30T06:30:31;30.53;;;24.47;;
20415;SDS011;10367;52.202;5.996;2023-07-30T06:33:00;31.43;;;23.53;;
20415;SDS011;10367;52.202;5.996;2023-07-30T06:35:29;40.73;;;24.17;;
20415;SDS011;10367;52.202;5.996;2023-07-30T06:37:58;26.07;;;23.40;;
20415;SDS011;10367;52.202;5.996;2023-07-30T06:40:29;30.43;;;25.77;;
20415;SDS011;10367;52.202;5.996;2023-07-30T06:43:00;29.67;;;25.60;;
20415;SDS011;10367;52.202;5.996;2023-07-30T06:45:28;35.30;;;25.00;;
20415;SDS011;10367;52.202;5.996;2023-07-30T06:47:57;29.33;;;23.30;;
20415;SDS011;10367;52.202;5.996;2023-07-30T06:50:26;27.97;;;24.60;;
20415;SDS011;10367;52.202;5.996;2023-07-30T06:52:55;29.30;;;24.73;;
20415;SDS011;10367;52.202;5.996;2023-07-30T06:55:23;29.53;;;25.63;;
20415;SDS011;10367;52.202;5.996;2023-07-30T06:57:54;27.13;;;23.13;;
20415;SDS011;10367;52.202;5.996;2023-07-30T07:00:23;27.63;;;24.87;;
20415;SDS011;10367;52.202;5.996;2023-07-30T07:02:52;26.03;;;23.23;;
20415;SDS011;10367;52.202;5.996;2023-07-30T07:05:23;26.03;;;23.30;;
20415;SDS011;10367;52.202;5.996;2023-07-30T07:07:52;31.33;;;24.40;;
20415;SDS011;10367;52.202;5.996;2023-07-30T07:10:21;27.90;;;24.70;;
20415;SDS011;10367;52.202;5.996;2023-07-30T07:12:50;29.53;;;26.23;;
20415;SDS011;10367;52.202;5.996;2023-07-30T07:15:20;33.80;;;24.20;;
20415;SDS011;10367;52.202;5.996;2023-07-30T07:17:49;34.80;;;25.63;;
20415;SDS011;10367;52.202;5.996;2023-07-30T07:20:18;27.87;;;25.10;;
20415;SDS011;10367;52.202;5.996;2023-07-30T07:22:47;26.00;;;23.53;;
20415;SDS011;10367;52.202;5.996;2023-07-30T07:25:16;34.57;;;25.43;;
20415;SDS011;10367;52.202;5.996;2023-07-30T07:27:46;30.60;;;23.13;;
20415;SDS011;10367;52.202;5.996;2023-07-30T07:30:15;28.37;;;23.70;;
20415;SDS011;10367;52.202;5.996;2023-07-30T07:32:45;26.63;;;23.80;;
20415;SDS011;10367;52.202;5.996;2023-07-30T07:35:18;30.70;;;25.77;;
20415;SDS011;10367;52.202;5.996;2023-07-30T07:37:47;25.37;;;22.83;;
20415;SDS011;10367;52.202;5.996;2023-07-30T07:40:16;27.30;;;24.53;;
20415;SDS011;10367;52.202;5.996;2023-07-30T07:42:45;25.10;;;22.47;;
20415;SDS011;10367;52.202;5.996;2023-07-30T07:45:14;33.67;;;24.40;;
20415;SDS011;10367;52.202;5.996;2023-07-30T07:47:45;26.30;;;23.23;;
20415;SDS011;10367;52.202;5.996;2023-07-30T07:50:14;25.83;;;23.30;;
20415;SDS011;10367;52.202;5.996;2023-07-30T07:52:43;25.83;;;23.13;;
20415;SDS011;10367;52.202;5.996;2023-07-30T07:58:09;23.70;;;21.73;;
20415;SDS011;10367;52.202;5.996;2023-07-30T08:00:38;25.60;;;23.03;;
20415;SDS011;10367;52.202;5.996;2023-07-30T08:03:08;27.77;;;24.17;;
20415;SDS011;10367;52.202;5.996;2023-07-30T08:05:37;28.40;;;24.23;;
20415;SDS011;10367;52.202;5.996;2023-07-30T08:08:07;26.00;;;23.43;;
20415;SDS011;10367;52.202;5.996;2023-07-30T08:10:38;25.53;;;23.20;;
20415;SDS011;10367;52.202;5.996;2023-07-30T08:13:07;27.33;;;24.47;;
20415;SDS011;10367;52.202;5.996;2023-07-30T08:15:36;30.43;;;25.50;;
20415;SDS011;10367;52.202;5.996;2023-07-30T08:18:05;28.27;;;24.83;;
20415;SDS011;10367;52.202;5.996;2023-07-30T08:20:35;24.97;;;22.80;;
20415;SDS011;10367;52.202;5.996;2023-07-30T08:23:04;29.03;;;25.20;;
20415;SDS011;10367;52.202;5.996;2023-07-30T08:25:33;27.70;;;24.07;;
20415;SDS011;10367;52.202;5.996;2023-07-30T08:28:02;27.03;;;24.40;;
20415;SDS011;10367;52.202;5.996;2023-07-30T08:30:31;29.53;;;26.50;;
20415;SDS011;10367;52.202;5.996;2023-07-30T08:33:00;28.37;;;25.40;;
20415;SDS011;10367;52.202;5.996;2023-07-30T08:35:29;30.10;;;27.00;;
20415;SDS011;10367;52.202;5.996;2023-07-30T08:37:59;28.20;;;25.47;;
20415;SDS011;10367;52.202;5.996;2023-07-30T08:40:27;27.17;;;24.67;;
20415;SDS011;10367;52.202;5.996;2023-07-30T08:42:57;27.27;;;24.47;;
20415;SDS011;10367;52.202;5.996;2023-07-30T08:45:26;31.93;;;25.23;;
20415;SDS011;10367;52.202;5.996;2023-07-30T08:47:55;26.03;;;23.53;;
20415;SDS011;10367;52.202;5.996;2023-07-30T08:50:26;28.77;;;26.10;;
20415;SDS011;10367;52.202;5.996;2023-07-30T08:52:56;25.83;;;23.83;;
20415;SDS011;10367;52.202;5.996;2023-07-30T08:55:28;26.40;;;24.20;;
20415;SDS011;10367;52.202;5.996;2023-07-30T08:58:01;25.30;;;22.83;;
20415;SDS011;10367;52.202;5.996;2023-07-30T09:00:34;25.10;;;22.60;;
20415;SDS011;10367;52.202;5.996;2023-07-30T09:03:05;28.20;;;24.60;;
20415;SDS011;10367;52.202;5.996;2023-07-30T09:05:35;26.20;;;23.77;;
20415;SDS011;10367;52.202;5.996;2023-07-30T09:08:06;26.97;;;24.93;;
20415;SDS011;10367;52.202;5.996;2023-07-30T09:10:46;26.80;;;24.37;;
20415;SDS011;10367;52.202;5.996;2023-07-30T09:13:20;26.57;;;24.47;;
20415;SDS011;10367;52.202;5.996;2023-07-30T09:15:50;24.67;;;22.33;;
20415;SDS011;10367;52.202;5.996;2023-07-30T09:18:19;26.60;;;24.40;;
20415;SDS011;10367;52.202;5.996;2023-07-30T09:20:48;25.33;;;22.97;;
20415;SDS011;10367;52.202;5.996;2023-07-30T09:23:19;27.27;;;24.37;;
20415;SDS011;10367;52.202;5.996;2023-07-30T09:25:50;25.47;;;22.87;;
20415;SDS011;10367;52.202;5.996;2023-07-30T09:28:20;27.63;;;23.47;;
20415;SDS011;10367;52.202;5.996;2023-07-30T09:30:59;24.73;;;22.67;;
20415;SDS011;10367;52.202;5.996;2023-07-30T09:33:48;26.03;;;23.73;;
20415;SDS011;10367;52.202;5.996;2023-07-30T09:36:19;26.77;;;24.63;;
20415;SDS011;10367;52.202;5.996;2023-07-30T09:38:53;28.13;;;25.43;;
20415;SDS011;10367;52.202;5.996;2023-07-30T09:41:25;28.13;;;25.53;;
20415;SDS011;10367;52.202;5.996;2023-07-30T09:43:57;27.00;;;24.60;;
20415;SDS011;10367;52.202;5.996;2023-07-30T09:46:28;27.67;;;25.10;;
20415;SDS011;10367;52.202;5.996;2023-07-30T09:48:58;26.40;;;23.50;;
20415;SDS011;10367;52.202;5.996;2023-07-30T09:51:28;26.57;;;23.93;;
20415;SDS011;10367;52.202;5.996;2023-07-30T09:53:59;25.27;;;23.10;;
20415;SDS011;10367;52.202;5.996;2023-07-30T09:56:29;25.43;;;23.23;;
20415;SDS011;10367;52.202;5.996;2023-07-30T09:58:58;25.50;;;23.10;;
20415;SDS011;10367;52.202;5.996;2023-07-30T10:01:27;27.10;;;24.60;;
20415;SDS011;10367;52.202;5.996;2023-07-30T10:03:57;26.50;;;24.40;;
20415;SDS011;10367;52.202;5.996;2023-07-30T10:06:29;27.60;;;25.10;;
20415;SDS011;10367;52.202;5.996;2023-07-30T10:09:00;26.77;;;24.07;;
20415;SDS011;10367;52.202;5.996;2023-07-30T10:11:30;29.13;;;24.43;;
20415;SDS011;10367;52.202;5.996;2023-07-30T10:13:59;25.80;;;23.93;;
20415;SDS011;10367;52.202;5.996;2023-07-30T10:16:29;28.17;;;25.63;;
20415;SDS011;10367;52.202;5.996;2023-07-30T10:18:58;25.80;;;23.53;;
20415;SDS011;10367;52.202;5.996;2023-07-30T10:21:27;25.60;;;23.53;;
20415;SDS011;10367;52.202;5.996;2023-07-30T10:23:59;27.30;;;24.43;;
20415;SDS011;10367;52.202;5.996;2023-07-30T10:26:31;26.03;;;23.73;;
20415;SDS011;10367;52.202;5.996;2023-07-30T10:29:13;26.23;;;23.90;;
20415;SDS011;10367;52.202;5.996;2023-07-30T10:31:51;23.80;;;22.10;;
20415;SDS011;10367;52.202;5.996;2023-07-30T10:34:21;26.50;;;24.17;;
20415;SDS011;10367;52.202;5.996;2023-07-30T10:36:54;23.17;;;21.43;;
20415;SDS011;10367;52.202;5.996;2023-07-30T10:39:26;25.27;;;23.30;;
20415;SDS011;10367;52.202;5.996;2023-07-30T10:41:56;25.47;;;23.17;;
20415;SDS011;10367;52.202;5.996;2023-07-30T10:44:30;26.53;;;24.00;;
20415;SDS011;10367;52.202;5.996;2023-07-30T10:47:01;25.50;;;23.27;;
20415;SDS011;10367;52.202;5.996;2023-07-30T10:49:35;25.93;;;24.00;;
20415;SDS011;10367;52.202;5.996;2023-07-30T10:52:05;24.80;;;23.07;;
20415;SDS011;10367;52.202;5.996;2023-07-30T10:54:36;23.53;;;21.77;;
20415;SDS011;10367;52.202;5.996;2023-07-30T10:57:05;24.67;;;22.87;;
20415;SDS011;10367;52.202;5.996;2023-07-30T10:59:42;24.33;;;22.63;;
20415;SDS011;10367;52.202;5.996;2023-07-30T11:02:11;25.17;;;23.20;;
20415;SDS011;10367;52.202;5.996;2023-07-30T11:04:49;24.87;;;23.20;;
20415;SDS011;10367;52.202;5.996;2023-07-30T11:07:25;26.83;;;24.47;;
20415;SDS011;10367;52.202;5.996;2023-07-30T11:10:00;26.87;;;24.17;;
20415;SDS011;10367;52.202;5.996;2023-07-30T11:12:29;26.57;;;24.50;;
20415;SDS011;10367;52.202;5.996;2023-07-30T11:15:01;25.20;;;23.27;;
20415;SDS011;10367;52.202;5.996;2023-07-30T11:17:30;26.93;;;24.73;;
20415;SDS011;10367;52.202;5.996;2023-07-30T11:19:59;25.67;;;23.77;;
20415;SDS011;10367;52.202;5.996;2023-07-30T11:22:29;26.17;;;24.17;;
20415;SDS011;10367;52.202;5.996;2023-07-30T11:24:58;26.33;;;24.50;;
20415;SDS011;10367;52.202;5.996;2023-07-30T11:27:44;24.50;;;22.80;;
20415;SDS011;10367;52.202;5.996;2023-07-30T11:30:13;24.10;;;22.43;;
20415;SDS011;10367;52.202;5.996;2023-07-30T11:32:42;24.93;;;22.73;;
20415;SDS011;10367;52.202;5.996;2023-07-30T11:35:12;25.20;;;23.43;;
20415;SDS011;10367;52.202;5.996;2023-07-30T11:37:42;24.03;;;22.37;;
20415;SDS011;10367;52.202;5.996;2023-07-30T11:40:13;25.67;;;23.60;;
20415;SDS011;10367;52.202;5.996;2023-07-30T11:42:42;24.13;;;22.50;;
20415;SDS011;10367;52.202;5.996;2023-07-30T11:45:17;26.47;;;24.37;;
20415;SDS011;10367;52.202;5.996;2023-07-30T11:47:46;24.77;;;22.53;;
20415;SDS011;10367;52.202;5.996;2023-07-30T11:50:16;25.47;;;23.30;;
20415;SDS011;10367;52.202;5.996;2023-07-30T11:52:51;23.47;;;22.07;;
20415;SDS011;10367;52.202;5.996;2023-07-30T11:55:25;24.73;;;23.13;;
20415;SDS011;10367;52.202;5.996;2023-07-30T11:58:05;23.37;;;21.83;;
20415;SDS011;10367;52.202;5.996;2023-07-30T12:00:36;24.17;;;22.63;;
20415;SDS011;10367;52.202;5.996;2023-07-30T12:03:06;24.80;;;23.23;;
20415;SDS011;10367;52.202;5.996;2023-07-30T12:05:38;25.23;;;23.20;;
20415;SDS011;10367;52.202;5.996;2023-07-30T12:08:12;22.70;;;21.20;;
20415;SDS011;10367;52.202;5.996;2023-07-30T12:10:46;24.23;;;22.53;;
20415;SDS011;10367;52.202;5.996;2023-07-30T12:13:17;23.80;;;22.00;;
20415;SDS011;10367;52.202;5.996;2023-07-30T12:15:50;24.83;;;23.10;;
20415;SDS011;10367;52.202;5.996;2023-07-30T12:18:22;25.53;;;23.43;;
20415;SDS011;10367;52.202;5.996;2023-07-30T12:20:52;22.93;;;21.17;;
20415;SDS011;10367;52.202;5.996;2023-07-30T12:23:24;24.10;;;22.27;;
20415;SDS011;10367;52.202;5.996;2023-07-30T12:25:55;24.73;;;22.83;;
20415;SDS011;10367;52.202;5.996;2023-07-30T12:28:24;24.53;;;22.87;;
20415;SDS011;10367;52.202;5.996;2023-07-30T12:30:55;22.93;;;21.47;;
20415;SDS011;10367;52.202;5.996;2023-07-30T12:33:24;24.57;;;22.60;;
20415;SDS011;10367;52.202;5.996;2023-07-30T12:35:53;23.00;;;21.10;;
20415;SDS011;10367;52.202;5.996;2023-07-30T12:38:22;24.00;;;22.33;;
20415;SDS011;10367;52.202;5.996;2023-07-30T12:40:51;23.03;;;21.53;;
20415;SDS011;10367;52.202;5.996;2023-07-30T12:43:22;25.07;;;23.10;;
20415;SDS011;10367;52.202;5.996;2023-07-30T12:45:51;23.43;;;21.77;;
20415;SDS011;10367;52.202;5.996;2023-07-30T12:48:22;24.83;;;23.07;;
20415;SDS011;10367;52.202;5.996;2023-07-30T12:50:51;22.47;;;21.10;;
20415;SDS011;10367;52.202;5.996;2023-07-30T12:53:24;24.47;;;22.67;;
20415;SDS011;10367;52.202;5.996;2023-07-30T12:56:00;22.97;;;21.17;;
20415;SDS011;10367;52.202;5.996;2023-07-30T12:58:32;23.80;;;22.30;;
20415;SDS011;10367;52.202;5.996;2023-07-30T13:01:03;24.27;;;22.60;;
20415;SDS011;10367;52.202;5.996;2023-07-30T13:03:35;24.50;;;22.87;;
20415;SDS011;10367;52.202;5.996;2023-07-30T13:06:12;25.23;;;23.57;;
20415;SDS011;10367;52.202;5.996;2023-07-30T13:08:54;25.43;;;23.47;;
20415;SDS011;10367;52.202;5.996;2023-07-30T13:11:24;26.77;;;24.83;;
20415;SDS011;10367;52.202;5.996;2023-07-30T13:13:54;25.03;;;23.53;;
20415;SDS011;10367;52.202;5.996;2023-07-30T13:16:25;26.27;;;24.37;;
20415;SDS011;10367;52.202;5.996;2023-07-30T13:18:54;24.10;;;22.70;;
20415;SDS011;10367;52.202;5.996;2023-07-30T13:21:26;24.70;;;23.00;;
20415;SDS011;10367;52.202;5.996;2023-07-30T13:23:54;25.03;;;23.40;;
20415;SDS011;10367;52.202;5.996;2023-07-30T13:26:26;26.60;;;24.63;;
20415;SDS011;10367;52.202;5.996;2023-07-30T13:28:56;24.67;;;23.10;;
20415;SDS011;10367;52.202;5.996;2023-07-30T13:31:25;23.30;;;21.93;;
20415;SDS011;10367;52.202;5.996;2023-07-30T13:33:59;25.27;;;23.27;;
20415;SDS011;10367;52.202;5.996;2023-07-30T13:36:30;26.00;;;24.00;;
20415;SDS011;10367;52.202;5.996;2023-07-30T13:39:06;24.17;;;22.53;;
20415;SDS011;10367;52.202;5.996;2023-07-30T13:41:36;23.23;;;21.80;;
20415;SDS011;10367;52.202;5.996;2023-07-30T13:44:09;23.27;;;21.83;;
20415;SDS011;10367;52.202;5.996;2023-07-30T13:46:38;23.13;;;21.67;;
20415;SDS011;10367;52.202;5.996;2023-07-30T13:49:08;23.93;;;21.97;;
20415;SDS011;10367;52.202;5.996;2023-07-30T13:51:37;25.30;;;23.30;;
20415;SDS011;10367;52.202;5.996;2023-07-30T13:54:06;24.07;;;22.47;;
20415;SDS011;10367;52.202;5.996;2023-07-30T13:56:40;23.70;;;22.00;;
20415;SDS011;10367;52.202;5.996;2023-07-30T13:59:14;24.67;;;22.73;;
20415;SDS011;10367;52.202;5.996;2023-07-30T14:01:47;24.27;;;22.53;;
20415;SDS011;10367;52.202;5.996;2023-07-30T14:04:16;23.97;;;22.47;;
20415;SDS011;10367;52.202;5.996;2023-07-30T14:06:45;23.43;;;21.93;;
20415;SDS011;10367;52.202;5.996;2023-07-30T14:09:14;24.30;;;22.40;;
20415;SDS011;10367;52.202;5.996;2023-07-30T14:11:45;23.97;;;22.27;;
20415;SDS011;10367;52.202;5.996;2023-07-30T14:14:17;23.73;;;22.07;;
20415;SDS011;10367;52.202;5.996;2023-07-30T14:16:47;22.77;;;21.17;;
20415;SDS011;10367;52.202;5.996;2023-07-30T14:19:16;23.60;;;21.73;;
20415;SDS011;10367;52.202;5.996;2023-07-30T14:21:49;23.20;;;21.23;;
20415;SDS011;10367;52.202;5.996;2023-07-30T14:24:17;23.10;;;21.40;;
20415;SDS011;10367;52.202;5.996;2023-07-30T14:26:46;23.50;;;22.00;;
20415;SDS011;10367;52.202;5.996;2023-07-30T14:29:18;25.00;;;23.13;;
20415;SDS011;10367;52.202;5.996;2023-07-30T14:31:51;23.77;;;22.23;;
20415;SDS011;10367;52.202;5.996;2023-07-30T14:34:20;24.33;;;22.43;;
20415;SDS011;10367;52.202;5.996;2023-07-30T14:36:54;23.57;;;21.97;;
20415;SDS011;10367;52.202;5.996;2023-07-30T14:39:25;24.17;;;22.43;;
20415;SDS011;10367;52.202;5.996;2023-07-30T14:41:57;23.03;;;21.43;;